sensor_id;sensor_type;location;lat;lon;timestamp;pressure;altitude;pressure_sealevel;temperature;humidity
35435;BME280;21556;55.782;37.528;2023-04-06T00:01:16;100427.84;;;8.92;100.00
35435;BME280;21556;55.782;37.528;2023-04-06T00:03:45;100422.06;;;8.52;100.00
35435;BME280;21556;55.782;37.528;2023-04-06T00:06:11;100420.53;;;8.82;100.00
35435;BME280;21556;55.782;37.528;2023-04-06T00:08:37;100424.19;;;8.87;100.00
35435;BME280;21556;55.782;37.528;2023-04-06T00:11:03;100424.84;;;8.34;100.00
35435;BME280;21556;55.782;37.528;2023-04-06T00:13:29;100428.13;;;8.28;100.00
35435;BME280;21556;55.782;37.528;2023-04-06T00:15:55;100427.13;;;8.47;100.00
35435;BME280;21556;55.782;37.528;2023-04-06T00:18:22;100428.00;;;8.48;100.00
35435;BME280;21556;55.782;37.528;2023-04-06T00:20:51;100428.22;;;8.07;100.00
35435;BME280;21556;55.782;37.528;2023-04-06T00:23:17;100434.31;;;8.08;100.00
35435;BME280;21556;55.782;37.528;2023-04-06T00:25:44;100432.00;;;8.15;100.00
35435;BME280;21556;55.782;37.528;2023-04-06T00:28:10;100436.19;;;8.10;100.00
35435;BME280;21556;55.782;37.528;2023-04-06T00:30:36;100432.75;;;8.35;100.00
35435;BME280;21556;55.782;37.528;2023-04-06T00:33:03;100429.22;;;8.35;100.00
35435;BME280;21556;55.782;37.528;2023-04-06T00:35:29;100433.25;;;8.25;100.00
35435;BME280;21556;55.782;37.528;2023-04-06T00:37:55;100432.25;;;8.68;100.00
35435;BME280;21556;55.782;37.528;2023-04-06T00:40:21;100428.38;;;8.12;100.00
35435;BME280;21556;55.782;37.528;2023-04-06T00:42:48;100435.03;;;8.26;100.00
35435;BME280;21556;55.782;37.528;2023-04-06T00:45:14;100428.69;;;7.97;100.00
35435;BME280;21556;55.782;37.528;2023-04-06T00:47:41;100426.72;;;8.14;100.00
35435;BME280;21556;55.782;37.528;2023-04-06T00:50:08;100428.31;;;7.88;100.00
35435;BME280;21556;55.782;37.528;2023-04-06T00:52:34;100425.03;;;7.92;100.00
35435;BME280;21556;55.782;37.528;2023-04-06T00:55:02;100428.53;;;8.16;100.00
35435;BME280;21556;55.782;37.528;2023-04-06T00:57:29;100424.69;;;8.29;100.00
35435;BME280;21556;55.782;37.528;2023-04-06T00:59:55;100429.22;;;8.35;100.00
35435;BME280;21556;55.782;37.528;2023-04-06T01:02:24;100422.91;;;8.06;100.00
35435;BME280;21556;55.782;37.528;2023-04-06T01:04:53;100424.66;;;7.83;100.00
35435;BME280;21556;55.782;37.528;2023-04-06T01:07:28;100420.38;;;8.07;100.00
35435;BME280;21556;55.782;37.528;2023-04-06T01:10:24;100420.78;;;7.73;100.00
35435;BME280;21556;55.782;37.528;2023-04-06T01:12:52;100422.75;;;8.01;100.00
35435;BME280;21556;55.782;37.528;2023-04-06T01:15:32;100420.81;;;7.95;100.00
35435;BME280;21556;55.782;37.528;2023-04-06T01:17:59;100419.06;;;8.18;100.00
35435;BME280;21556;55.782;37.528;2023-04-06T01:20:29;100419.38;;;8.28;100.00
35435;BME280;21556;55.782;37.528;2023-04-06T01:22:57;100413.56;;;7.88;100.00
35435;BME280;21556;55.782;37.528;2023-04-06T01:25:23;100418.13;;;7.71;100.00
35435;BME280;21556;55.782;37.528;2023-04-06T01:28:02;100413.47;;;7.87;100.00
35435;BME280;21556;55.782;37.528;2023-04-06T01:30:50;100414.56;;;7.92;100.00
35435;BME280;21556;55.782;37.528;2023-04-06T01:33:42;100419.38;;;7.81;100.00
35435;BME280;21556;55.782;37.528;2023-04-06T01:36:15;100414.38;;;7.65;100.00
35435;BME280;21556;55.782;37.528;2023-04-06T01:38:42;100416.78;;;7.81;100.00
35435;BME280;21556;55.782;37.528;2023-04-06T01:41:09;100427.97;;;7.79;100.00
35435;BME280;21556;55.782;37.528;2023-04-06T01:43:48;100413.84;;;7.74;100.00
35435;BME280;21556;55.782;37.528;2023-04-06T01:46:15;100420.31;;;7.61;100.00
35435;BME280;21556;55.782;37.528;2023-04-06T01:48:43;100415.06;;;7.38;100.00
35435;BME280;21556;55.782;37.528;2023-04-06T01:51:27;100416.22;;;7.67;100.00
35435;BME280;21556;55.782;37.528;2023-04-06T01:53:59;100424.47;;;7.56;100.00
35435;BME280;21556;55.782;37.528;2023-04-06T01:56:37;100417.94;;;7.89;100.00
35435;BME280;21556;55.782;37.528;2023-04-06T01:59:17;100413.94;;;7.54;100.00
35435;BME280;21556;55.782;37.528;2023-04-06T02:01:43;100416.00;;;7.40;100.00
35435;BME280;21556;55.782;37.528;2023-04-06T02:04:12;100413.63;;;7.46;100.00
35435;BME280;21556;55.782;37.528;2023-04-06T02:06:40;100412.88;;;7.49;100.00
35435;BME280;21556;55.782;37.528;2023-04-06T02:09:08;100425.69;;;7.22;100.00
35435;BME280;21556;55.782;37.528;2023-04-06T02:11:35;100421.28;;;7.42;100.00
35435;BME280;21556;55.782;37.528;2023-04-06T02:14:01;100428.69;;;7.31;100.00
35435;BME280;21556;55.782;37.528;2023-04-06T02:16:52;100429.13;;;7.21;100.00
35435;BME280;21556;55.782;37.528;2023-04-06T02:19:19;100423.03;;;7.20;100.00
35435;BME280;21556;55.782;37.528;2023-04-06T02:21:45;100431.38;;;7.55;100.00
35435;BME280;21556;55.782;37.528;2023-04-06T02:24:11;100437.41;;;7.53;100.00
35435;BME280;21556;55.782;37.528;2023-04-06T02:26:40;100439.81;;;7.06;100.00
35435;BME280;21556;55.782;37.528;2023-04-06T02:29:06;100436.25;;;6.83;100.00
35435;BME280;21556;55.782;37.528;2023-04-06T02:31:32;100443.38;;;7.29;100.00
35435;BME280;21556;55.782;37.528;2023-04-06T02:34:00;100440.91;;;7.32;100.00
35435;BME280;21556;55.782;37.528;2023-04-06T02:36:29;100443.31;;;7.48;100.00
35435;BME280;21556;55.782;37.528;2023-04-06T02:38:55;100437.53;;;7.78;100.00
35435;BME280;21556;55.782;37.528;2023-04-06T02:41:22;100453.38;;;7.39;100.00
35435;BME280;21556;55.782;37.528;2023-04-06T02:43:51;100437.31;;;7.51;100.00
35435;BME280;21556;55.782;37.528;2023-04-06T02:46:34;100442.91;;;7.60;100.00
35435;BME280;21556;55.782;37.528;2023-04-06T02:49:02;100444.97;;;7.90;100.00
35435;BME280;21556;55.782;37.528;2023-04-06T02:51:31;100453.50;;;7.63;100.00
35435;BME280;21556;55.782;37.528;2023-04-06T02:54:09;100460.38;;;7.40;100.00
35435;BME280;21556;55.782;37.528;2023-04-06T02:56:35;100459.31;;;7.35;100.00
35435;BME280;21556;55.782;37.528;2023-04-06T02:59:01;100465.09;;;7.28;100.00
35435;BME280;21556;55.782;37.528;2023-04-06T03:01:30;100466.97;;;7.11;100.00
35435;BME280;21556;55.782;37.528;2023-04-06T03:04:03;100472.09;;;6.89;100.00
35435;BME280;21556;55.782;37.528;2023-04-06T03:06:29;100469.47;;;7.29;100.00
35435;BME280;21556;55.782;37.528;2023-04-06T03:09:02;100481.56;;;7.06;100.00
35435;BME280;21556;55.782;37.528;2023-04-06T03:11:30;100477.56;;;7.14;100.00
35435;BME280;21556;55.782;37.528;2023-04-06T03:13:56;100475.97;;;7.18;100.00
35435;BME280;21556;55.782;37.528;2023-04-06T03:16:22;100480.22;;;6.95;100.00
35435;BME280;21556;55.782;37.528;2023-04-06T03:18:48;100477.16;;;7.26;100.00
35435;BME280;21556;55.782;37.528;2023-04-06T03:21:14;100476.06;;;7.19;100.00
35435;BME280;21556;55.782;37.528;2023-04-06T03:23:46;100482.63;;;7.31;100.00
35435;BME280;21556;55.782;37.528;2023-04-06T03:26:12;100477.63;;;7.58;100.00
35435;BME280;21556;55.782;37.528;2023-04-06T03:28:38;100485.72;;;7.64;100.00
35435;BME280;21556;55.782;37.528;2023-04-06T03:31:05;100483.28;;;7.47;100.00
35435;BME280;21556;55.782;37.528;2023-04-06T03:33:57;100487.06;;;6.93;100.00
35435;BME280;21556;55.782;37.528;2023-04-06T03:36:29;100498.94;;;7.06;100.00
35435;BME280;21556;55.782;37.528;2023-04-06T03:38:56;100491.81;;;7.02;100.00
35435;BME280;21556;55.782;37.528;2023-04-06T03:41:23;100500.25;;;6.96;100.00
35435;BME280;21556;55.782;37.528;2023-04-06T03:44:05;100497.09;;;7.03;100.00
35435;BME280;21556;55.782;37.528;2023-04-06T03:46:31;100498.34;;;6.92;100.00
35435;BME280;21556;55.782;37.528;2023-04-06T03:48:58;100502.09;;;6.98;100.00
35435;BME280;21556;55.782;37.528;2023-04-06T03:51:25;100506.03;;;6.89;100.00
35435;BME280;21556;55.782;37.528;2023-04-06T03:53:51;100506.25;;;7.14;100.00
35435;BME280;21556;55.782;37.528;2023-04-06T03:56:17;100504.28;;;7.30;100.00
35435;BME280;21556;55.782;37.528;2023-04-06T03:58:43;100508.28;;;6.81;100.00
35435;BME280;21556;55.782;37.528;2023-04-06T04:01:11;100513.97;;;7.32;100.00
35435;BME280;21556;55.782;37.528;2023-04-06T04:03:37;100507.13;;;7.34;100.00
35435;BME280;21556;55.782;37.528;2023-04-06T04:06:03;100503.81;;;7.38;100.00
35435;BME280;21556;55.782;37.528;2023-04-06T04:08:30;100510.69;;;7.36;100.00
35435;BME280;21556;55.782;37.528;2023-04-06T04:10:56;100510.19;;;7.45;100.00
35435;BME280;21556;55.782;37.528;2023-04-06T04:13:22;100518.63;;;7.39;100.00
35435;BME280;21556;55.782;37.528;2023-04-06T04:15:50;100512.97;;;7.70;100.00
35435;BME280;21556;55.782;37.528;2023-04-06T04:18:16;100512.22;;;7.52;100.00
35435;BME280;21556;55.782;37.528;2023-04-06T04:20:44;100514.13;;;7.35;100.00
35435;BME280;21556;55.782;37.528;2023-04-06T04:23:14;100518.94;;;7.26;100.00
35435;BME280;21556;55.782;37.528;2023-04-06T04:25:40;100524.75;;;6.99;100.00
35435;BME280;21556;55.782;37.528;2023-04-06T04:28:06;100515.44;;;7.05;100.00
35435;BME280;21556;55.782;37.528;2023-04-06T04:30:33;100520.56;;;7.03;100.00
35435;BME280;21556;55.782;37.528;2023-04-06T04:32:59;100511.06;;;7.45;100.00
35435;BME280;21556;55.782;37.528;2023-04-06T04:35:27;100521.59;;;7.07;100.00
35435;BME280;21556;55.782;37.528;2023-04-06T04:38:05;100525.09;;;7.07;100.00
35435;BME280;21556;55.782;37.528;2023-04-06T04:40:47;100522.25;;;7.22;100.00
35435;BME280;21556;55.782;37.528;2023-04-06T04:43:21;100517.06;;;7.64;100.00
35435;BME280;21556;55.782;37.528;2023-04-06T04:45:47;100525.91;;;7.67;100.00
35435;BME280;21556;55.782;37.528;2023-04-06T04:48:45;100531.41;;;7.74;100.00
35435;BME280;21556;55.782;37.528;2023-04-06T04:51:11;100525.69;;;7.21;100.00
35435;BME280;21556;55.782;37.528;2023-04-06T04:54:01;100529.28;;;7.44;100.00
35435;BME280;21556;55.782;37.528;2023-04-06T04:56:35;100521.84;;;7.74;100.00
35435;BME280;21556;55.782;37.528;2023-04-06T04:59:14;100517.16;;;7.88;100.00
35435;BME280;21556;55.782;37.528;2023-04-06T05:01:46;100522.94;;;8.02;100.00
35435;BME280;21556;55.782;37.528;2023-04-06T05:04:13;100517.22;;;7.89;100.00
35435;BME280;21556;55.782;37.528;2023-04-06T05:06:39;100527.88;;;7.73;100.00
35435;BME280;21556;55.782;37.528;2023-04-06T05:09:09;100526.03;;;7.70;100.00
35435;BME280;21556;55.782;37.528;2023-04-06T05:11:37;100523.16;;;7.85;100.00
35435;BME280;21556;55.782;37.528;2023-04-06T05:14:03;100512.94;;;7.91;100.00
35435;BME280;21556;55.782;37.528;2023-04-06T05:16:29;100518.28;;;7.94;100.00
35435;BME280;21556;55.782;37.528;2023-04-06T05:18:55;100518.94;;;8.10;100.00
35435;BME280;21556;55.782;37.528;2023-04-06T05:21:25;100525.09;;;8.12;100.00
35435;BME280;21556;55.782;37.528;2023-04-06T05:24:00;100522.34;;;8.09;100.00
35435;BME280;21556;55.782;37.528;2023-04-06T05:26:30;100520.72;;;8.56;100.00
35435;BME280;21556;55.782;37.528;2023-04-06T05:29:01;100535.94;;;8.43;100.00
35435;BME280;21556;55.782;37.528;2023-04-06T05:31:31;100528.13;;;8.23;100.00
35435;BME280;21556;55.782;37.528;2023-04-06T05:33:57;100522.28;;;8.51;100.00
35435;BME280;21556;55.782;37.528;2023-04-06T05:36:33;100525.16;;;8.36;100.00
35435;BME280;21556;55.782;37.528;2023-04-06T05:39:04;100514.88;;;8.63;100.00
35435;BME280;21556;55.782;37.528;2023-04-06T05:41:42;100520.78;;;8.81;100.00
35435;BME280;21556;55.782;37.528;2023-04-06T05:44:10;100519.69;;;9.24;100.00
35435;BME280;21556;55.782;37.528;2023-04-06T05:46:37;100528.69;;;9.58;100.00
35435;BME280;21556;55.782;37.528;2023-04-06T05:49:08;100520.28;;;9.41;100.00
35435;BME280;21556;55.782;37.528;2023-04-06T05:51:41;100512.81;;;9.52;100.00
35435;BME280;21556;55.782;37.528;2023-04-06T05:54:10;100519.50;;;9.96;100.00
35435;BME280;21556;55.782;37.528;2023-04-06T05:56:36;100521.75;;;10.12;100.00
35435;BME280;21556;55.782;37.528;2023-04-06T05:59:03;100522.66;;;10.70;100.00
35435;BME280;21556;55.782;37.528;2023-04-06T06:01:47;100516.50;;;10.70;100.00
35435;BME280;21556;55.782;37.528;2023-04-06T06:04:40;100523.59;;;10.72;100.00
35435;BME280;21556;55.782;37.528;2023-04-06T06:07:06;100520.59;;;10.90;100.00
35435;BME280;21556;55.782;37.528;2023-04-06T06:09:39;100516.28;;;10.92;100.00
35435;BME280;21556;55.782;37.528;2023-04-06T06:12:16;100511.41;;;11.06;100.00
35435;BME280;21556;55.782;37.528;2023-04-06T06:15:08;100508.75;;;12.07;100.00
35435;BME280;21556;55.782;37.528;2023-04-06T06:17:38;100498.44;;;13.45;100.00
35435;BME280;21556;55.782;37.528;2023-04-06T06:20:08;100502.75;;;13.40;100.00
35435;BME280;21556;55.782;37.528;2023-04-06T06:22:34;100500.97;;;14.51;100.00
35435;BME280;21556;55.782;37.528;2023-04-06T06:25:01;100502.34;;;14.25;100.00
35435;BME280;21556;55.782;37.528;2023-04-06T06:27:30;100499.84;;;15.02;100.00
35435;BME280;21556;55.782;37.528;2023-04-06T06:29:56;100495.75;;;15.32;100.00
35435;BME280;21556;55.782;37.528;2023-04-06T06:32:23;100493.47;;;15.67;97.79
35435;BME280;21556;55.782;37.528;2023-04-06T06:34:52;100490.00;;;15.74;99.98
35435;BME280;21556;55.782;37.528;2023-04-06T06:37:18;100486.59;;;15.89;93.54
35435;BME280;21556;55.782;37.528;2023-04-06T06:39:52;100482.19;;;15.88;92.99
35435;BME280;21556;55.782;37.528;2023-04-06T06:42:27;100479.25;;;17.05;76.42
35435;BME280;21556;55.782;37.528;2023-04-06T06:45:13;100474.81;;;18.48;64.93
35435;BME280;21556;55.782;37.528;2023-04-06T06:47:39;100474.00;;;18.11;66.56
35435;BME280;21556;55.782;37.528;2023-04-06T06:50:10;100472.22;;;18.15;66.99
35435;BME280;21556;55.782;37.528;2023-04-06T06:52:36;100475.78;;;17.48;71.72
35435;BME280;21556;55.782;37.528;2023-04-06T06:55:02;100472.13;;;18.53;65.71
35435;BME280;21556;55.782;37.528;2023-04-06T06:57:32;100471.38;;;18.03;65.43
35435;BME280;21556;55.782;37.528;2023-04-06T07:00:08;100474.69;;;18.85;57.13
35435;BME280;21556;55.782;37.528;2023-04-06T07:02:35;100463.00;;;19.09;55.73
35435;BME280;21556;55.782;37.528;2023-04-06T07:05:13;100452.53;;;20.05;49.57
35435;BME280;21556;55.782;37.528;2023-04-06T07:07:42;100466.72;;;18.82;58.42
35435;BME280;21556;55.782;37.528;2023-04-06T07:10:11;100464.03;;;18.87;59.52
35435;BME280;21556;55.782;37.528;2023-04-06T07:12:40;100474.84;;;18.28;61.19
35435;BME280;21556;55.782;37.528;2023-04-06T07:15:06;100470.25;;;18.86;58.69
35435;BME280;21556;55.782;37.528;2023-04-06T07:17:48;100474.00;;;18.20;63.49
35435;BME280;21556;55.782;37.528;2023-04-06T07:20:14;100472.09;;;18.64;57.51
35435;BME280;21556;55.782;37.528;2023-04-06T07:22:43;100475.59;;;18.80;58.43
35435;BME280;21556;55.782;37.528;2023-04-06T07:25:12;100470.94;;;19.20;54.83
35435;BME280;21556;55.782;37.528;2023-04-06T07:27:41;100458.41;;;20.33;48.30
35435;BME280;21556;55.782;37.528;2023-04-06T07:30:08;100461.81;;;19.53;56.24
35435;BME280;21556;55.782;37.528;2023-04-06T07:32:34;100462.81;;;19.43;54.98
35435;BME280;21556;55.782;37.528;2023-04-06T07:35:02;100464.34;;;19.76;54.20
35435;BME280;21556;55.782;37.528;2023-04-06T07:37:29;100460.66;;;19.88;49.85
35435;BME280;21556;55.782;37.528;2023-04-06T07:39:55;100457.53;;;20.32;47.79
35435;BME280;21556;55.782;37.528;2023-04-06T07:42:24;100458.66;;;19.00;54.76
35435;BME280;21556;55.782;37.528;2023-04-06T07:44:51;100463.22;;;18.75;57.17
35435;BME280;21556;55.782;37.528;2023-04-06T07:47:17;100465.56;;;19.26;55.41
35435;BME280;21556;55.782;37.528;2023-04-06T07:49:43;100454.34;;;20.01;50.20
35435;BME280;21556;55.782;37.528;2023-04-06T07:52:10;100451.53;;;19.04;57.08
35435;BME280;21556;55.782;37.528;2023-04-06T07:54:36;100456.38;;;19.71;51.49
35435;BME280;21556;55.782;37.528;2023-04-06T07:57:02;100451.75;;;20.74;45.28
35435;BME280;21556;55.782;37.528;2023-04-06T07:59:31;100455.41;;;19.83;50.41
35435;BME280;21556;55.782;37.528;2023-04-06T08:01:57;100453.81;;;20.50;46.62
35435;BME280;21556;55.782;37.528;2023-04-06T08:04:23;100449.31;;;19.67;49.33
35435;BME280;21556;55.782;37.528;2023-04-06T08:06:51;100444.78;;;19.80;51.67
35435;BME280;21556;55.782;37.528;2023-04-06T08:09:17;100452.25;;;20.29;47.46
35435;BME280;21556;55.782;37.528;2023-04-06T08:11:43;100445.53;;;19.93;48.76
35435;BME280;21556;55.782;37.528;2023-04-06T08:14:11;100462.03;;;19.24;51.05
35435;BME280;21556;55.782;37.528;2023-04-06T08:16:38;100454.13;;;20.23;46.79
35435;BME280;21556;55.782;37.528;2023-04-06T08:19:07;100444.88;;;20.56;43.19
35435;BME280;21556;55.782;37.528;2023-04-06T08:21:35;100438.13;;;20.23;43.31
35435;BME280;21556;55.782;37.528;2023-04-06T08:24:02;100456.25;;;19.87;47.80
35435;BME280;21556;55.782;37.528;2023-04-06T08:26:28;100455.16;;;18.95;51.77
35435;BME280;21556;55.782;37.528;2023-04-06T08:28:54;100446.25;;;20.12;43.41
35435;BME280;21556;55.782;37.528;2023-04-06T08:31:21;100446.97;;;19.24;47.26
35435;BME280;21556;55.782;37.528;2023-04-06T08:37:04;100432.84;;;20.92;42.43
35435;BME280;21556;55.782;37.528;2023-04-06T08:40:46;100434.66;;;20.14;41.48
35435;BME280;21556;55.782;37.528;2023-04-06T08:43:14;100441.06;;;19.98;43.37
35435;BME280;21556;55.782;37.528;2023-04-06T08:45:41;100439.50;;;19.76;44.92
35435;BME280;21556;55.782;37.528;2023-04-06T08:48:08;100440.50;;;20.50;43.75
35435;BME280;21556;55.782;37.528;2023-04-06T08:50:35;100437.00;;;20.42;43.26
35435;BME280;21556;55.782;37.528;2023-04-06T08:53:02;100432.13;;;20.01;43.86
35435;BME280;21556;55.782;37.528;2023-04-06T08:55:28;100428.47;;;20.12;42.16
35435;BME280;21556;55.782;37.528;2023-04-06T08:57:54;100424.50;;;20.52;41.33
35435;BME280;21556;55.782;37.528;2023-04-06T09:00:21;100423.06;;;20.92;41.46
35435;BME280;21556;55.782;37.528;2023-04-06T09:02:53;100424.31;;;20.64;39.14
35435;BME280;21556;55.782;37.528;2023-04-06T09:05:21;100434.34;;;20.40;42.20
35435;BME280;21556;55.782;37.528;2023-04-06T09:07:50;100415.16;;;21.93;35.16
35435;BME280;21556;55.782;37.528;2023-04-06T09:10:16;100421.56;;;21.32;38.03
35435;BME280;21556;55.782;37.528;2023-04-06T09:12:42;100433.50;;;22.15;36.28
35435;BME280;21556;55.782;37.528;2023-04-06T09:15:18;100421.63;;;21.81;35.04
35435;BME280;21556;55.782;37.528;2023-04-06T09:17:50;100415.34;;;21.30;37.11
35435;BME280;21556;55.782;37.528;2023-04-06T09:20:23;100412.75;;;21.81;34.99
35435;BME280;21556;55.782;37.528;2023-04-06T09:22:52;100415.44;;;21.24;35.72
35435;BME280;21556;55.782;37.528;2023-04-06T09:25:20;100427.25;;;21.09;36.20
35435;BME280;21556;55.782;37.528;2023-04-06T09:27:46;100412.00;;;21.73;33.76
35435;BME280;21556;55.782;37.528;2023-04-06T09:30:13;100414.66;;;21.73;33.45
35435;BME280;21556;55.782;37.528;2023-04-06T09:32:50;100418.66;;;21.98;32.91
35435;BME280;21556;55.782;37.528;2023-04-06T09:35:49;100413.13;;;21.59;32.62
35435;BME280;21556;55.782;37.528;2023-04-06T09:38:15;100422.50;;;21.29;34.62
35435;BME280;21556;55.782;37.528;2023-04-06T09:40:50;100416.78;;;21.52;33.08
35435;BME280;21556;55.782;37.528;2023-04-06T09:43:26;100425.94;;;21.39;33.70
35435;BME280;21556;55.782;37.528;2023-04-06T09:45:52;100429.78;;;21.16;33.75
35435;BME280;21556;55.782;37.528;2023-04-06T09:48:20;100416.38;;;21.23;35.55
35435;BME280;21556;55.782;37.528;2023-04-06T09:50:55;100409.59;;;21.00;33.63
35435;BME280;21556;55.782;37.528;2023-04-06T09:53:26;100410.22;;;21.73;32.22
35435;BME280;21556;55.782;37.528;2023-04-06T09:55:57;100415.13;;;21.47;32.44
35435;BME280;21556;55.782;37.528;2023-04-06T09:58:34;100408.22;;;21.30;32.48
35435;BME280;21556;55.782;37.528;2023-04-06T10:01:15;100415.31;;;21.33;33.50
35435;BME280;21556;55.782;37.528;2023-04-06T10:03:52;100411.84;;;21.26;32.01
35435;BME280;21556;55.782;37.528;2023-04-06T10:06:26;100409.03;;;20.78;33.14
35435;BME280;21556;55.782;37.528;2023-04-06T10:08:55;100402.44;;;21.02;32.32
35435;BME280;21556;55.782;37.528;2023-04-06T10:11:22;100400.06;;;21.94;31.47
35435;BME280;21556;55.782;37.528;2023-04-06T10:13:59;100403.19;;;21.13;32.61
35435;BME280;21556;55.782;37.528;2023-04-06T10:16:47;100402.75;;;21.43;34.20
35435;BME280;21556;55.782;37.528;2023-04-06T10:19:20;100394.19;;;21.73;31.60
35435;BME280;21556;55.782;37.528;2023-04-06T10:21:51;100399.44;;;22.26;31.46
35435;BME280;21556;55.782;37.528;2023-04-06T10:24:20;100395.41;;;22.48;30.42
35435;BME280;21556;55.782;37.528;2023-04-06T10:27:02;100402.19;;;21.21;31.39
35435;BME280;21556;55.782;37.528;2023-04-06T10:29:28;100384.81;;;22.44;30.02
35435;BME280;21556;55.782;37.528;2023-04-06T10:32:06;100402.81;;;21.87;30.78
35435;BME280;21556;55.782;37.528;2023-04-06T10:34:35;100403.47;;;22.00;30.94
35435;BME280;21556;55.782;37.528;2023-04-06T10:37:16;100399.50;;;21.21;31.07
35435;BME280;21556;55.782;37.528;2023-04-06T10:39:51;100397.44;;;21.91;30.17
35435;BME280;21556;55.782;37.528;2023-04-06T10:42:24;100398.34;;;21.88;30.21
35435;BME280;21556;55.782;37.528;2023-04-06T10:44:51;100392.38;;;22.23;30.83
35435;BME280;21556;55.782;37.528;2023-04-06T10:47:18;100378.81;;;22.73;28.75
35435;BME280;21556;55.782;37.528;2023-04-06T10:49:44;100394.63;;;21.97;31.57
35435;BME280;21556;55.782;37.528;2023-04-06T10:52:10;100395.50;;;20.90;32.56
35435;BME280;21556;55.782;37.528;2023-04-06T10:54:42;100384.13;;;20.08;35.49
35435;BME280;21556;55.782;37.528;2023-04-06T10:57:09;100403.66;;;20.07;36.81
35435;BME280;21556;55.782;37.528;2023-04-06T10:59:35;100404.50;;;20.12;38.32
35435;BME280;21556;55.782;37.528;2023-04-06T11:02:01;100400.47;;;19.73;36.92
35435;BME280;21556;55.782;37.528;2023-04-06T11:04:27;100402.22;;;19.76;36.73
35435;BME280;21556;55.782;37.528;2023-04-06T11:06:53;100402.66;;;19.22;38.31
35435;BME280;21556;55.782;37.528;2023-04-06T11:09:28;100417.16;;;18.72;40.21
35435;BME280;21556;55.782;37.528;2023-04-06T11:11:54;100406.00;;;19.45;38.83
35435;BME280;21556;55.782;37.528;2023-04-06T11:14:21;100399.66;;;19.63;36.85
35435;BME280;21556;55.782;37.528;2023-04-06T11:16:49;100415.97;;;19.19;38.25
35435;BME280;21556;55.782;37.528;2023-04-06T11:19:16;100411.63;;;19.10;37.71
35435;BME280;21556;55.782;37.528;2023-04-06T11:21:47;100403.03;;;18.56;39.59
35435;BME280;21556;55.782;37.528;2023-04-06T11:24:16;100412.81;;;18.46;39.80
35435;BME280;21556;55.782;37.528;2023-04-06T11:26:48;100431.56;;;17.53;44.43
35435;BME280;21556;55.782;37.528;2023-04-06T11:29:19;100421.84;;;17.67;46.20
35435;BME280;21556;55.782;37.528;2023-04-06T11:31:48;100414.78;;;17.77;44.73
35435;BME280;21556;55.782;37.528;2023-04-06T11:34:23;100413.00;;;17.85;46.12
35435;BME280;21556;55.782;37.528;2023-04-06T11:36:54;100415.59;;;18.08;45.02
35435;BME280;21556;55.782;37.528;2023-04-06T11:39:23;100406.63;;;18.40;42.19
35435;BME280;21556;55.782;37.528;2023-04-06T11:41:51;100412.09;;;17.86;44.62
35435;BME280;21556;55.782;37.528;2023-04-06T11:47:01;100417.44;;;17.48;45.39
35435;BME280;21556;55.782;37.528;2023-04-06T11:49:31;100403.28;;;17.52;45.67
35435;BME280;21556;55.782;37.528;2023-04-06T11:51:59;100407.69;;;17.48;47.46
35435;BME280;21556;55.782;37.528;2023-04-06T11:54:32;100412.09;;;17.60;45.04
35435;BME280;21556;55.782;37.528;2023-04-06T11:56:58;100413.00;;;17.80;46.56
35435;BME280;21556;55.782;37.528;2023-04-06T11:59:24;100395.31;;;17.90;45.31
35435;BME280;21556;55.782;37.528;2023-04-06T12:01:50;100401.50;;;17.46;45.46
35435;BME280;21556;55.782;37.528;2023-04-06T12:04:17;100405.91;;;17.73;44.63
35435;BME280;21556;55.782;37.528;2023-04-06T12:06:46;100406.81;;;17.34;48.42
35435;BME280;21556;55.782;37.528;2023-04-06T12:09:14;100403.25;;;17.67;46.03
35435;BME280;21556;55.782;37.528;2023-04-06T12:11:43;100405.03;;;17.85;47.04
35435;BME280;21556;55.782;37.528;2023-04-06T12:14:10;100390.88;;;17.74;47.60
35435;BME280;21556;55.782;37.528;2023-04-06T12:16:36;100394.44;;;17.38;47.96
35435;BME280;21556;55.782;37.528;2023-04-06T12:19:02;100400.66;;;17.40;46.29
35435;BME280;21556;55.782;37.528;2023-04-06T12:21:29;100390.91;;;17.77;45.73
35435;BME280;21556;55.782;37.528;2023-04-06T12:23:59;100396.16;;;18.00;44.59
35435;BME280;21556;55.782;37.528;2023-04-06T12:26:26;100397.06;;;17.71;44.56
35435;BME280;21556;55.782;37.528;2023-04-06T12:28:53;100391.75;;;17.93;44.97
35435;BME280;21556;55.782;37.528;2023-04-06T12:31:23;100399.75;;;17.41;47.03
35435;BME280;21556;55.782;37.528;2023-04-06T12:33:51;100399.72;;;17.68;44.96
35435;BME280;21556;55.782;37.528;2023-04-06T12:36:19;100399.72;;;17.82;44.15
35435;BME280;21556;55.782;37.528;2023-04-06T12:38:48;100392.63;;;17.95;42.86
35435;BME280;21556;55.782;37.528;2023-04-06T12:41:15;100392.66;;;17.49;45.12
35435;BME280;21556;55.782;37.528;2023-04-06T12:43:41;100395.31;;;17.78;44.98
35435;BME280;21556;55.782;37.528;2023-04-06T12:46:08;100393.53;;;17.46;45.95
35435;BME280;21556;55.782;37.528;2023-04-06T12:48:34;100402.38;;;17.08;48.34
35435;BME280;21556;55.782;37.528;2023-04-06T12:51:03;100393.53;;;17.02;48.68
35435;BME280;21556;55.782;37.528;2023-04-06T12:53:29;100390.03;;;17.47;47.54
35435;BME280;21556;55.782;37.528;2023-04-06T12:55:56;100389.97;;;16.75;50.80
35435;BME280;21556;55.782;37.528;2023-04-06T12:58:23;100385.59;;;17.16;51.08
35435;BME280;21556;55.782;37.528;2023-04-06T13:00:52;100385.59;;;17.54;47.49